Time;durP1;ratioP1;P1;durP2;ratioP2;P2;SDS_P1;SDS_P2;PMS_P1;PMS_P2;Temp;Humidity;BMP_temperature;BMP_pressure;BME280_temperature;BME280_humidity;BME280_pressure;Samples;Min_cycle;Max_cycle;Signal;HPM_P1;HPM_P2
2021/11/24 00:01:21;;;;;;;49.97;21.03;;;9.30;99.90;;;;;;4919583;29;20586;-92
2021/11/24 00:03:47;;;;;;;44.23;21.00;;;9.20;99.90;;;;;;4921342;29;20190;-95
2021/11/24 00:06:13;;;;;;;52.13;22.47;;;9.50;99.90;;;;;;4942327;29;20184;-94
2021/11/24 00:08:38;;;;;;;49.47;23.17;;;9.60;99.90;;;;;;4925450;29;20191;-95
2021/11/24 00:11:04;;;;;;;57.70;21.87;;;9.80;99.90;;;;;;4925514;29;20579;-95
2021/11/24 00:13:29;;;;;;;56.23;23.70;;;9.90;99.90;;;;;;4925303;29;20230;-95
2021/11/24 00:15:55;;;;;;;49.07;22.07;;;9.80;99.90;;;;;;4927306;29;20187;-96
2021/11/24 00:18:21;;;;;;;64.37;28.90;;;9.90;99.90;;;;;;4925868;29;20187;-95
2021/11/24 00:20:46;;;;;;;66.77;23.13;;;10.10;99.90;;;;;;4942026;29;20204;-94
2021/11/24 00:23:12;;;;;;;52.47;22.67;;;9.90;99.90;;;;;;4925066;29;20187;-95
2021/11/24 00:25:38;;;;;;;51.93;22.13;;;9.60;99.90;;;;;;4941721;29;20225;-88
2021/11/24 00:28:03;;;;;;;50.57;22.00;;;9.50;99.90;;;;;;4941559;29;20187;-93
2021/11/24 00:30:29;;;;;;;53.27;21.47;;;9.50;99.90;;;;;;4941946;29;20651;-94
2021/11/24 00:32:56;;;;;;;47.70;21.20;;;9.50;99.90;;;;;;4925029;29;20282;-95
2021/11/24 00:35:22;;;;;;;51.63;20.77;;;9.50;99.90;;;;;;4925221;29;20199;-96
2021/11/24 00:37:48;;;;;;;53.13;21.70;;;9.40;99.90;;;;;;4925275;29;20714;-95
2021/11/24 00:40:13;;;;;;;51.67;22.20;;;9.30;99.90;;;;;;4925224;29;20191;-95
2021/11/24 00:42:39;;;;;;;55.30;21.10;;;9.40;99.90;;;;;;4941260;29;20203;-92
2021/11/24 00:45:05;;;;;;;54.43;22.00;;;9.40;99.90;;;;;;4924843;29;20416;-95
2021/11/24 00:47:31;;;;;;;53.63;22.30;;;9.60;99.90;;;;;;4925171;29;20880;-91
2021/11/24 00:49:57;;;;;;;53.07;21.00;;;9.70;99.90;;;;;;4941496;29;20184;-95
2021/11/24 00:52:23;;;;;;;69.87;22.67;;;9.80;99.90;;;;;;4925140;29;20253;-92
2021/11/24 00:54:48;;;;;;;66.40;23.33;;;9.80;99.90;;;;;;4924998;29;20283;-93
2021/11/24 00:57:14;;;;;;;70.30;24.33;;;9.90;99.90;;;;;;4941769;29;20227;-95
2021/11/24 00:59:40;;;;;;;57.43;21.13;;;9.80;99.90;;;;;;4941917;29;20252;-85
2021/11/24 01:02:05;;;;;;;61.30;24.43;;;9.80;99.90;;;;;;4926192;29;20666;-91
2021/11/24 01:04:31;;;;;;;67.73;24.33;;;9.80;99.90;;;;;;4942103;29;20192;-95
2021/11/24 01:06:57;;;;;;;53.47;21.93;;;9.60;99.90;;;;;;4941917;29;20197;-95
2021/11/24 01:09:23;;;;;;;64.07;22.53;;;9.70;99.90;;;;;;4924924;29;20602;-93
2021/11/24 01:11:49;;;;;;;62.93;23.50;;;9.60;99.90;;;;;;4925298;29;20270;-94
2021/11/24 01:14:14;;;;;;;67.00;23.30;;;9.70;99.90;;;;;;4924357;29;20172;-94
2021/11/24 01:16:42;;;;;;;74.60;24.43;;;9.60;99.90;;;;;;4921543;29;20275;-95
2021/11/24 01:19:08;;;;;;;71.83;24.37;;;9.60;99.90;;;;;;4921826;29;20255;-93
2021/11/24 01:21:33;;;;;;;64.73;23.77;;;9.70;99.90;;;;;;4922253;29;20760;-94
2021/11/24 01:23:59;;;;;;;59.43;22.13;;;9.70;99.90;;;;;;4922350;29;20189;-95
2021/11/24 01:26:24;;;;;;;74.47;24.33;;;9.60;99.90;;;;;;4922172;29;20191;-95
2021/11/24 01:28:50;;;;;;;61.57;22.27;;;9.50;99.90;;;;;;4922307;29;20263;-96
2021/11/24 01:31:16;;;;;;;68.80;22.87;;;9.30;99.90;;;;;;4921886;29;20219;-95
2021/11/24 01:33:41;;;;;;;65.10;21.20;;;9.20;99.90;;;;;;4922054;29;20831;-94
2021/11/24 01:36:07;;;;;;;67.17;22.53;;;9.20;99.90;;;;;;4939070;29;20180;-96
2021/11/24 01:38:34;;;;;;;62.63;21.90;;;9.00;99.90;;;;;;4923120;29;20172;-94
2021/11/24 01:40:59;;;;;;;62.47;22.27;;;9.00;99.90;;;;;;4923962;29;20184;-89
2021/11/24 01:43:25;;;;;;;63.27;21.97;;;9.10;99.90;;;;;;4923531;29;20191;-94
2021/11/24 01:45:50;;;;;;;63.47;22.23;;;9.10;99.90;;;;;;4940245;29;20219;-95
2021/11/24 01:48:16;;;;;;;66.77;23.97;;;9.00;99.90;;;;;;4939095;29;20185;-95
2021/11/24 01:50:42;;;;;;;71.57;23.67;;;9.10;99.90;;;;;;4921864;29;20246;-95
2021/11/24 01:53:07;;;;;;;83.73;24.60;;;9.30;99.90;;;;;;4922676;29;20191;-95
2021/11/24 01:55:33;;;;;;;67.63;23.13;;;9.20;99.90;;;;;;4924630;29;20659;-96
2021/11/24 01:58:00;;;;;;;72.53;23.67;;;9.10;99.90;;;;;;4921931;29;20222;-95
2021/11/24 02:00:31;;;;;;;71.00;24.50;;;9.10;99.90;;;;;;4938745;29;20184;-94
2021/11/24 02:02:59;;;;;;;64.17;22.87;;;9.10;99.90;;;;;;4921605;29;20599;-94
2021/11/24 02:05:25;;;;;;;74.13;22.37;;;9.10;99.90;;;;;;4920871;29;20219;-95
2021/11/24 02:07:50;;;;;;;60.03;21.67;;;9.00;99.90;;;;;;4937872;29;20191;-94
2021/11/24 02:10:20;;;;;;;57.57;22.63;;;9.00;99.90;;;;;;4920351;29;20190;-95
2021/11/24 02:12:48;;;;;;;70.20;23.50;;;9.10;99.90;;;;;;4921840;29;20270;-95
2021/11/24 02:15:14;;;;;;;76.87;23.73;;;9.10;99.90;;;;;;4921469;29;20184;-95
2021/11/24 02:17:39;;;;;;;72.93;22.87;;;9.10;99.90;;;;;;4921891;29;20218;-95
2021/11/24 02:20:10;;;;;;;70.43;24.60;;;9.20;99.90;;;;;;4938787;29;20915;-93
2021/11/24 02:22:36;;;;;;;64.57;22.20;;;9.20;99.90;;;;;;4922044;29;20219;-95
2021/11/24 02:25:02;;;;;;;70.03;24.43;;;9.40;99.90;;;;;;4950956;29;20199;-91
2021/11/24 02:27:28;;;;;;;71.17;24.90;;;9.50;99.90;;;;;;4950329;29;20215;-94
2021/11/24 02:29:53;;;;;;;72.23;24.73;;;9.50;99.90;;;;;;4921358;29;20235;-94
2021/11/24 02:32:19;;;;;;;75.60;24.20;;;9.50;99.90;;;;;;4920190;29;20661;-94
2021/11/24 02:34:44;;;;;;;70.80;24.03;;;9.40;99.90;;;;;;4920860;29;20188;-95
2021/11/24 02:37:10;;;;;;;59.57;23.13;;;9.40;99.90;;;;;;4920331;29;20248;-95
2021/11/24 02:39:36;;;;;;;67.37;25.23;;;9.60;99.90;;;;;;4951218;29;20189;-94
2021/11/24 02:42:02;;;;;;;64.27;25.83;;;9.60;99.90;;;;;;4924169;29;20263;-95
2021/11/24 02:44:36;;;;;;;72.63;24.73;;;9.60;99.90;;;;;;4937370;29;20547;-94
2021/11/24 02:47:21;;;;;;;62.43;24.53;;;9.50;99.90;;;;;;4920283;29;20193;-95
2021/11/24 02:49:49;;;;;;;82.03;25.93;;;9.30;99.90;;;;;;4920902;29;20186;-94
2021/11/24 02:52:16;;;;;;;80.83;26.73;;;9.20;99.90;;;;;;4920230;29;20210;-95
2021/11/24 02:54:52;;;;;;;92.07;29.90;;;9.20;99.90;;;;;;4920443;29;20188;-95
2021/11/24 02:57:19;;;;;;;91.17;32.27;;;9.40;99.90;;;;;;4925942;29;20276;-95
2021/11/24 02:59:44;;;;;;;101.67;31.87;;;9.50;99.90;;;;;;4944946;29;20191;-95
2021/11/24 03:02:10;;;;;;;98.70;30.73;;;9.60;99.90;;;;;;4937163;29;20188;-96
2021/11/24 03:04:37;;;;;;;100.27;31.73;;;9.50;99.90;;;;;;4920555;29;20198;-93
2021/11/24 03:07:03;;;;;;;97.73;31.83;;;9.40;99.90;;;;;;4936833;29;20188;-95
2021/11/24 03:09:29;;;;;;;111.03;36.00;;;9.40;99.90;;;;;;4920670;29;20212;-96
2021/11/24 03:11:56;;;;;;;100.13;32.23;;;9.40;99.90;;;;;;4920409;29;20180;-93
2021/11/24 03:14:21;;;;;;;117.17;33.10;;;9.40;99.90;;;;;;4920899;29;20184;-94
2021/11/24 03:16:47;;;;;;;119.73;34.17;;;9.30;99.90;;;;;;4937067;29;20224;-95
2021/11/24 03:19:13;;;;;;;111.57;33.10;;;9.40;99.90;;;;;;4937145;29;20192;-95
2021/11/24 03:21:39;;;;;;;131.17;35.07;;;9.40;99.90;;;;;;4937041;29;20606;-95
2021/11/24 03:24:05;;;;;;;120.93;36.33;;;9.50;99.90;;;;;;4916456;29;20220;-95
2021/11/24 03:26:31;;;;;;;130.03;36.67;;;9.40;99.90;;;;;;4919194;29;20198;-95
2021/11/24 03:28:57;;;;;;;135.73;37.13;;;9.30;99.90;;;;;;4920451;29;20180;-92
2021/11/24 03:31:22;;;;;;;122.33;36.10;;;9.30;99.90;;;;;;4945829;28;20218;-95
2021/11/24 03:33:48;;;;;;;144.70;37.03;;;9.40;99.90;;;;;;4948321;29;20525;-95
2021/11/24 03:36:14;;;;;;;150.37;39.03;;;9.50;99.90;;;;;;4921236;29;20214;-95
2021/11/24 03:38:39;;;;;;;147.30;36.90;;;9.60;99.90;;;;;;4935761;29;20680;-93
2021/11/24 03:41:05;;;;;;;127.33;36.87;;;9.50;99.90;;;;;;4920141;29;20191;-96
2021/11/24 03:43:31;;;;;;;124.17;37.20;;;9.60;99.90;;;;;;4936477;29;20540;-95
2021/11/24 03:45:57;;;;;;;118.07;35.77;;;9.40;99.90;;;;;;4919647;29;20224;-94
2021/11/24 03:48:22;;;;;;;109.87;36.20;;;9.30;99.90;;;;;;4919458;29;20704;-95
2021/11/24 03:50:48;;;;;;;115.53;35.60;;;9.20;99.90;;;;;;4936321;29;20192;-95
2021/11/24 03:53:14;;;;;;;95.70;33.87;;;9.40;99.90;;;;;;4919133;29;20199;-95
2021/11/24 03:55:39;;;;;;;95.07;33.77;;;9.40;99.90;;;;;;4936351;29;20183;-96
2021/11/24 03:58:05;;;;;;;86.50;32.90;;;9.40;99.90;;;;;;4935980;29;20229;-93
2021/11/24 04:00:32;;;;;;;81.77;33.33;;;9.30;99.90;;;;;;4922131;29;20183;-95
2021/11/24 04:02:58;;;;;;;83.90;33.63;;;9.40;99.90;;;;;;4945957;28;20275;-95
2021/11/24 04:05:24;;;;;;;84.40;32.80;;;9.30;99.90;;;;;;4919603;29;20192;-96
2021/11/24 04:07:50;;;;;;;79.23;33.67;;;9.40;99.90;;;;;;4920123;29;20670;-96
2021/11/24 04:10:16;;;;;;;72.10;29.70;;;9.40;99.90;;;;;;4937605;29;20556;-91
2021/11/24 04:12:42;;;;;;;77.30;30.27;;;9.40;99.90;;;;;;4937418;29;20182;-96
2021/11/24 04:15:11;;;;;;;80.03;32.87;;;9.40;99.90;;;;;;4918800;29;20187;-95
2021/11/24 04:17:36;;;;;;;72.67;31.67;;;9.30;99.90;;;;;;4920323;29;20214;-95
2021/11/24 04:20:04;;;;;;;75.13;29.30;;;9.50;99.90;;;;;;4920587;29;20176;-94
2021/11/24 04:22:30;;;;;;;72.93;31.63;;;9.50;99.90;;;;;;4937322;29;20652;-96
2021/11/24 04:24:55;;;;;;;73.00;30.43;;;9.50;99.90;;;;;;4920380;29;20195;-95
2021/11/24 04:27:22;;;;;;;82.73;31.53;;;9.50;99.90;;;;;;4936853;29;20230;-90
2021/11/24 04:29:48;;;;;;;83.63;31.67;;;9.40;99.90;;;;;;4919659;29;20708;-95
2021/11/24 04:32:16;;;;;;;89.77;32.87;;;9.50;99.90;;;;;;4919025;29;20208;-95
2021/11/24 04:34:42;;;;;;;90.03;32.83;;;9.40;99.90;;;;;;4918732;29;20219;-95
2021/11/24 04:37:07;;;;;;;83.50;32.77;;;9.40;99.90;;;;;;4919129;29;20255;-95
2021/11/24 04:39:33;;;;;;;85.33;32.37;;;9.40;99.90;;;;;;4935623;29;20191;-95
2021/11/24 04:41:59;;;;;;;86.17;31.30;;;9.40;99.90;;;;;;4935620;29;20198;-95
2021/11/24 04:44:24;;;;;;;88.80;31.77;;;9.50;99.90;;;;;;4936074;29;20325;-90
2021/11/24 04:46:50;;;;;;;92.20;33.43;;;9.40;99.90;;;;;;4918465;29;20187;-94
2021/11/24 04:49:16;;;;;;;89.10;32.93;;;9.50;99.90;;;;;;4919050;29;20200;-92
2021/11/24 04:51:41;;;;;;;82.73;31.03;;;9.30;99.90;;;;;;4939592;29;20195;-95
2021/11/24 04:54:07;;;;;;;77.13;29.83;;;9.20;99.90;;;;;;4939659;29;20191;-94
2021/11/24 04:56:32;;;;;;;74.20;28.87;;;9.20;99.90;;;;;;4922642;29;20222;-95
2021/11/24 04:59:00;;;;;;;76.60;31.10;;;9.30;99.90;;;;;;4939595;29;20184;-95
2021/11/24 05:01:26;;;;;;;77.07;29.53;;;9.30;99.90;;;;;;4922670;29;20201;-96
2021/11/24 05:03:52;;;;;;;77.90;29.13;;;9.20;99.90;;;;;;4927899;29;20179;-94
2021/11/24 05:06:19;;;;;;;70.93;27.63;;;9.20;99.90;;;;;;4928867;29;20222;-91
2021/11/24 05:08:45;;;;;;;79.50;29.77;;;9.20;99.90;;;;;;4940072;29;20210;-95
2021/11/24 05:11:13;;;;;;;73.90;28.77;;;9.30;99.90;;;;;;4939581;29;20192;-95
2021/11/24 05:13:46;;;;;;;75.83;28.20;;;9.20;99.90;;;;;;4921927;29;20187;-93
2021/11/24 05:16:11;;;;;;;74.47;27.80;;;9.20;99.90;;;;;;4938558;29;20192;-88
2021/11/24 05:18:40;;;;;;;73.60;27.83;;;9.10;99.90;;;;;;4922104;29;20246;-95
2021/11/24 05:21:11;;;;;;;73.07;29.10;;;9.20;99.90;;;;;;4928257;29;20207;-95
2021/11/24 05:23:39;;;;;;;76.93;28.67;;;9.10;99.90;;;;;;4935913;29;20196;-90
2021/11/24 05:26:05;;;;;;;66.83;27.90;;;9.20;99.90;;;;;;4942138;29;20182;-96
2021/11/24 05:28:32;;;;;;;68.20;28.27;;;9.20;99.90;;;;;;4922455;29;20180;-96
2021/11/24 05:30:58;;;;;;;68.53;29.13;;;9.20;99.90;;;;;;4939041;29;20568;-95
2021/11/24 05:33:24;;;;;;;66.70;29.03;;;9.20;99.90;;;;;;4934352;29;20287;-95
2021/11/24 05:35:50;;;;;;;68.50;29.23;;;9.10;99.90;;;;;;4923357;29;20303;-96
2021/11/24 05:38:16;;;;;;;66.90;27.47;;;9.20;99.90;;;;;;4924778;29;20212;-96
2021/11/24 05:40:42;;;;;;;63.80;28.17;;;9.10;99.90;;;;;;4924157;29;20687;-96
2021/11/24 05:43:07;;;;;;;65.17;27.87;;;9.10;99.90;;;;;;4941255;29;20191;-96
2021/11/24 05:45:40;;;;;;;68.00;28.77;;;9.20;99.90;;;;;;4924365;29;20184;-96
2021/11/24 05:48:10;;;;;;;64.03;26.77;;;9.30;99.90;;;;;;4942971;29;20579;-96
2021/11/24 05:50:37;;;;;;;62.90;27.43;;;9.30;99.90;;;;;;4942421;29;20224;-96
2021/11/24 05:53:05;;;;;;;68.03;27.57;;;9.30;99.90;;;;;;4924040;29;20184;-95
2021/11/24 05:55:31;;;;;;;77.50;29.13;;;9.30;99.90;;;;;;4941048;29;20176;-95
2021/11/24 05:57:58;;;;;;;67.73;28.70;;;9.20;99.90;;;;;;4945569;29;20214;-95
2021/11/24 06:00:24;;;;;;;78.50;28.47;;;9.20;99.90;;;;;;4926566;29;20591;-96
2021/11/24 06:02:50;;;;;;;69.67;28.77;;;9.30;99.90;;;;;;4935148;29;20262;-93
2021/11/24 06:05:15;;;;;;;67.67;28.60;;;9.20;99.90;;;;;;4934936;29;20211;-95
2021/11/24 06:07:42;;;;;;;72.90;29.30;;;9.30;99.90;;;;;;4938275;29;20207;-95
2021/11/24 06:10:09;;;;;;;66.10;28.20;;;9.30;99.90;;;;;;4933058;29;20184;-93
2021/11/24 06:12:38;;;;;;;71.80;29.73;;;9.30;99.90;;;;;;4945530;29;20185;-96
2021/11/24 06:15:08;;;;;;;73.07;30.63;;;9.30;99.90;;;;;;4946043;29;20207;-95
2021/11/24 06:17:34;;;;;;;71.77;28.97;;;9.30;99.90;;;;;;4930698;29;20262;-93
2021/11/24 06:19:59;;;;;;;79.47;30.07;;;9.20;99.90;;;;;;4924272;29;20208;-96
2021/11/24 06:22:25;;;;;;;73.30;30.00;;;9.10;99.90;;;;;;4940662;29;20641;-96
2021/11/24 06:24:51;;;;;;;73.67;29.53;;;9.30;99.90;;;;;;4939179;29;20335;-93
2021/11/24 06:27:16;;;;;;;80.17;31.80;;;9.30;99.90;;;;;;4939534;29;20192;-92
2021/11/24 06:29:42;;;;;;;77.47;31.33;;;9.50;99.90;;;;;;4923370;29;20183;-93
2021/11/24 06:32:07;;;;;;;77.93;30.73;;;9.40;99.90;;;;;;4920806;29;20267;-95
2021/11/24 06:34:33;;;;;;;79.00;32.17;;;9.40;99.90;;;;;;4938159;29;20199;-89
2021/11/24 06:36:59;;;;;;;79.53;30.47;;;9.30;99.90;;;;;;4911774;29;20216;-91
2021/11/24 06:39:27;;;;;;;72.70;28.90;;;9.40;99.90;;;;;;4918778;29;20203;-91
2021/11/24 06:41:56;;;;;;;78.53;28.33;;;9.30;99.90;;;;;;4921131;29;20282;-91
2021/11/24 06:44:22;;;;;;;76.27;28.13;;;9.30;99.90;;;;;;4919081;29;20192;-86
2021/11/24 16:45:20;;;;;;;54.73;25.63;;;10.10;99.90;;;;;;5003385;23;20233;-88
2021/11/24 16:48:26;;;;;;;53.13;25.53;;;10.00;99.90;;;;;;4990193;28;20178;-90
2021/11/24 16:51:34;;;;;;;50.27;26.07;;;9.90;99.90;;;;;;4985777;28;20183;-88
2021/11/24 16:54:46;;;;;;;52.53;25.27;;;9.80;99.90;;;;;;5002327;28;20234;-89
2021/11/24 16:57:51;;;;;;;53.33;25.33;;;9.90;99.90;;;;;;4985777;28;20221;-89
2021/11/24 17:40:45;;;;;;;55.93;25.80;;;10.00;99.90;;;;;;4986282;23;20230;-84
2021/11/24 17:43:11;;;;;;;54.97;26.87;;;9.70;99.90;;;;;;4959368;28;20182;-84
2021/11/24 17:45:37;;;;;;;59.93;28.60;;;9.80;99.90;;;;;;4959492;28;20235;-84
2021/11/24 17:48:03;;;;;;;59.00;28.60;;;9.80;99.90;;;;;;4959494;28;20697;-84
2021/11/24 17:50:30;;;;;;;60.00;27.73;;;9.80;99.90;;;;;;4959254;28;20270;-84
2021/11/24 17:52:56;;;;;;;59.33;27.57;;;9.80;99.90;;;;;;4958864;28;20187;-84
2021/11/24 17:55:22;;;;;;;58.87;27.97;;;9.80;99.90;;;;;;4959106;28;20185;-84
2021/11/24 17:57:50;;;;;;;57.10;29.13;;;9.70;99.90;;;;;;4957914;28;20218;-84
2021/11/24 18:00:19;;;;;;;52.33;27.53;;;9.80;99.90;;;;;;4958922;28;20237;-84
2021/11/24 18:02:44;;;;;;;55.70;28.53;;;9.80;99.90;;;;;;4959281;28;20662;-84
2021/11/24 18:05:10;;;;;;;58.10;28.77;;;9.90;99.90;;;;;;4958828;28;20274;-84
2021/11/24 18:07:36;;;;;;;64.17;30.00;;;9.90;99.90;;;;;;4958925;28;20205;-84
2021/11/24 18:10:02;;;;;;;60.57;29.77;;;9.80;99.90;;;;;;4959140;28;20191;-83
2021/11/24 18:12:28;;;;;;;60.47;29.83;;;9.80;99.90;;;;;;4958861;28;20187;-84
2021/11/24 18:14:53;;;;;;;58.83;30.23;;;10.20;99.90;;;;;;4988289;28;20196;-83
2021/11/24 18:17:19;;;;;;;59.33;29.17;;;10.00;99.90;;;;;;4960048;28;20217;-84
2021/11/24 18:19:45;;;;;;;57.53;28.93;;;9.80;99.90;;;;;;4958706;28;20193;-84
2021/11/24 18:22:10;;;;;;;56.40;28.40;;;9.70;99.90;;;;;;4958464;28;20186;-84
2021/11/24 18:24:36;;;;;;;55.93;28.77;;;9.80;99.90;;;;;;4958867;28;20186;-84
2021/11/24 18:27:03;;;;;;;58.43;28.37;;;9.70;99.90;;;;;;4958282;28;20484;-84
2021/11/24 18:29:28;;;;;;;57.00;28.97;;;9.70;99.90;;;;;;4975944;28;20189;-85
2021/11/24 18:31:54;;;;;;;57.57;28.27;;;9.80;99.90;;;;;;4946236;29;20214;-84
2021/11/24 18:34:20;;;;;;;58.47;29.37;;;9.80;99.90;;;;;;4939179;28;20660;-84
2021/11/24 18:36:46;;;;;;;59.87;28.83;;;9.80;99.90;;;;;;4939359;29;20194;-84
2021/11/24 18:39:12;;;;;;;58.40;28.07;;;9.80;99.90;;;;;;4938910;29;20211;-84
2021/11/24 18:41:40;;;;;;;54.00;26.93;;;9.80;99.90;;;;;;4956506;28;20520;-84
2021/11/24 18:44:10;;;;;;;60.47;29.13;;;9.80;99.90;;;;;;4939275;29;20326;-84
2021/11/24 18:46:37;;;;;;;55.20;26.97;;;9.70;99.90;;;;;;4939052;29;20190;-84
2021/11/24 18:49:03;;;;;;;58.43;27.97;;;9.70;99.90;;;;;;4938732;29;20214;-84
2021/11/24 18:51:30;;;;;;;55.80;25.67;;;9.70;99.90;;;;;;4939114;28;20274;-84
2021/11/24 18:53:56;;;;;;;58.17;27.97;;;9.70;99.90;;;;;;4938861;29;20260;-82
2021/11/24 18:56:22;;;;;;;56.83;26.80;;;9.70;99.90;;;;;;4938932;29;20600;-83
2021/11/24 18:58:48;;;;;;;55.07;25.83;;;9.60;99.90;;;;;;4939097;29;20214;-84
2021/11/24 19:01:13;;;;;;;52.80;25.00;;;9.50;99.90;;;;;;4939694;29;20240;-84
2021/11/24 19:03:39;;;;;;;57.33;26.13;;;9.60;99.90;;;;;;4942329;28;20623;-84
2021/11/24 19:06:05;;;;;;;54.83;25.07;;;9.60;99.90;;;;;;4948775;29;20551;-84
2021/11/24 19:08:31;;;;;;;49.77;24.17;;;9.70;99.90;;;;;;4957330;28;20199;-84
2021/11/24 19:10:58;;;;;;;49.60;24.30;;;9.70;99.90;;;;;;4950562;29;20181;-84
2021/11/24 19:13:24;;;;;;;53.30;24.37;;;9.70;99.90;;;;;;4938711;29;20183;-84
2021/11/24 19:15:49;;;;;;;52.20;24.03;;;9.60;99.90;;;;;;4956059;28;20678;-84
2021/11/24 19:18:15;;;;;;;52.53;23.37;;;9.70;99.90;;;;;;4938424;29;20314;-83
2021/11/24 19:20:41;;;;;;;48.70;24.00;;;9.70;99.90;;;;;;4938395;29;20265;-84
2021/11/24 19:23:07;;;;;;;49.57;22.57;;;9.70;99.90;;;;;;4938471;29;20187;-82
2021/11/24 19:25:35;;;;;;;53.23;24.97;;;9.50;99.90;;;;;;4955890;28;20254;-84
2021/11/24 19:28:01;;;;;;;54.27;24.60;;;9.40;99.90;;;;;;4938495;29;20207;-84
2021/11/24 19:30:27;;;;;;;48.70;22.90;;;9.40;99.90;;;;;;4938441;28;20274;-84
2021/11/24 19:32:52;;;;;;;46.47;22.43;;;9.30;99.90;;;;;;4938190;28;20219;-83
2021/11/24 19:35:20;;;;;;;50.50;22.87;;;9.40;99.90;;;;;;4938472;29;20186;-84
2021/11/24 19:37:46;;;;;;;52.60;22.50;;;9.50;99.90;;;;;;4938509;28;20229;-84
2021/11/24 19:40:18;;;;;;;49.13;21.83;;;9.40;99.90;;;;;;4937941;29;20234;-84
2021/11/24 19:42:44;;;;;;;48.77;21.20;;;9.40;99.90;;;;;;4938118;29;20274;-82
2021/11/24 19:45:11;;;;;;;48.30;23.07;;;9.40;99.90;;;;;;4955059;28;20641;-83
2021/11/24 19:47:38;;;;;;;45.70;22.03;;;9.60;99.90;;;;;;4937954;29;20246;-82
2021/11/24 19:50:06;;;;;;;44.13;21.63;;;9.50;99.90;;;;;;4938421;29;20179;-85
2021/11/24 19:52:32;;;;;;;47.10;21.07;;;9.50;99.90;;;;;;4938055;29;20190;-82
2021/11/24 19:54:57;;;;;;;52.43;22.90;;;9.50;99.90;;;;;;4954979;28;20191;-83
2021/11/24 19:57:51;;;;;;;53.67;23.90;;;9.30;99.90;;;;;;4955925;28;20218;-96
2021/11/24 20:00:20;;;;;;;50.90;23.23;;;9.40;99.90;;;;;;4936689;29;20183;-83
2021/11/24 20:02:45;;;;;;;49.87;23.47;;;9.30;99.90;;;;;;4937323;29;20201;-84
2021/11/24 20:05:13;;;;;;;54.60;25.03;;;9.40;99.90;;;;;;4925627;28;20186;-85
2021/11/24 20:07:39;;;;;;;53.53;23.47;;;9.40;99.90;;;;;;4933740;29;20219;-84
2021/11/24 20:10:06;;;;;;;45.73;22.13;;;9.30;99.90;;;;;;4936488;28;20428;-84
2021/11/24 20:12:31;;;;;;;47.03;21.63;;;9.30;99.90;;;;;;4936084;28;20571;-84
2021/11/24 20:14:57;;;;;;;48.60;21.63;;;9.30;99.90;;;;;;4937180;29;20190;-85
2021/11/24 20:17:24;;;;;;;48.30;22.90;;;9.40;99.90;;;;;;4954106;28;20676;-85
2021/11/24 20:19:50;;;;;;;54.27;22.83;;;9.50;99.90;;;;;;4936945;29;20195;-85
2021/11/24 20:22:16;;;;;;;50.23;22.40;;;9.40;99.90;;;;;;4941244;28;20190;-85
2021/11/24 20:24:42;;;;;;;48.03;22.27;;;9.30;99.90;;;;;;4958396;28;20194;-85
2021/11/24 20:27:10;;;;;;;52.37;22.53;;;9.30;99.90;;;;;;4941530;28;20234;-84
2021/11/24 20:29:36;;;;;;;51.50;21.10;;;9.20;99.90;;;;;;4943023;28;20662;-84
2021/11/24 20:32:04;;;;;;;49.37;21.33;;;9.30;99.90;;;;;;4941710;29;20286;-84
2021/11/24 20:34:29;;;;;;;45.80;21.00;;;9.20;99.90;;;;;;4958388;28;20656;-83
2021/11/24 20:36:55;;;;;;;53.33;23.10;;;9.10;99.90;;;;;;4958557;28;20203;-85
2021/11/24 20:39:22;;;;;;;52.43;22.77;;;9.20;99.90;;;;;;4941822;29;20213;-84
2021/11/24 20:41:49;;;;;;;51.77;21.93;;;9.20;99.90;;;;;;4942361;29;20186;-85
2021/11/24 20:44:15;;;;;;;50.23;22.30;;;9.20;99.90;;;;;;4941511;28;20274;-84
2021/11/24 20:46:40;;;;;;;45.53;21.43;;;9.00;99.90;;;;;;4941685;29;20187;-85
2021/11/24 20:49:06;;;;;;;46.27;21.70;;;8.90;99.90;;;;;;4941449;29;20186;-84
2021/11/24 20:51:33;;;;;;;46.97;21.83;;;8.80;99.90;;;;;;4941672;28;20183;-84
2021/11/24 20:53:58;;;;;;;47.27;21.87;;;8.80;99.90;;;;;;4941234;28;20179;-84
2021/11/24 20:56:24;;;;;;;50.80;22.73;;;8.90;99.90;;;;;;4940997;28;20545;-83
2021/11/24 20:58:52;;;;;;;46.67;22.73;;;8.80;99.90;;;;;;4957852;28;20278;-84
2021/11/24 21:01:20;;;;;;;52.57;23.40;;;8.90;99.90;;;;;;4941282;28;20198;-83
2021/11/24 21:03:46;;;;;;;49.60;22.30;;;8.80;99.90;;;;;;4941495;29;20201;-84
2021/11/24 21:06:14;;;;;;;48.50;22.07;;;8.70;99.90;;;;;;4938528;29;20195;-84
2021/11/24 21:08:40;;;;;;;50.83;23.17;;;8.70;99.90;;;;;;4941634;28;20191;-84
2021/11/24 21:11:07;;;;;;;53.77;22.53;;;8.60;99.90;;;;;;4941277;29;20200;-83
2021/11/24 21:13:35;;;;;;;52.67;22.47;;;8.50;99.90;;;;;;4958853;28;20651;-83
2021/11/24 21:16:09;;;;;;;49.33;23.00;;;8.40;99.90;;;;;;4959269;28;20186;-84
2021/11/24 21:18:34;;;;;;;45.70;22.03;;;8.30;99.90;;;;;;4959157;28;20333;-84
2021/11/24 21:21:11;;;;;;;51.63;22.20;;;8.30;99.90;;;;;;4942178;29;20212;-84
2021/11/24 21:23:37;;;;;;;44.67;21.57;;;8.40;99.90;;;;;;4941645;28;20193;-82
2021/11/24 21:26:04;;;;;;;46.23;22.13;;;8.30;99.90;;;;;;4958331;28;20274;-85
